TimeCDT,TemperatureF,Dew PointF,Humidity,Sea Level PressureIn,VisibilityMPH,Wind Direction,Wind SpeedMPH,Gust SpeedMPH,PrecipitationIn,Events,Conditions,WindDirDegrees,DateUTC
12:15 AM,64.0,61.9,93,29.92,10.0,East,4.6,-,N/A,,Clear,80,2013-07-22 05:15:00
12:35 AM,64.0,61.9,93,29.91,10.0,East,4.6,-,N/A,,Clear,90,2013-07-22 05:35:00
12:55 AM,64.0,62.1,93,29.91,10.0,ESE,3.5,-,N/A,,Clear,110,2013-07-22 05:55:00
1:15 AM,64.0,61.9,93,29.91,10.0,Calm,Calm,-,N/A,,Clear,0,2013-07-22 06:15:00
1:35 AM,64.0,61.9,93,29.90,10.0,SE,3.5,-,N/A,,Clear,130,2013-07-22 06:35:00
1:55 AM,64.0,62.1,93,29.90,10.0,Calm,Calm,-,N/A,,Clear,0,2013-07-22 06:55:00
2:15 AM,64.0,61.9,93,29.88,7.0,SSE,4.6,-,N/A,,Clear,150,2013-07-22 07:15:00
2:35 AM,63.9,61.9,93,29.89,5.0,Calm,Calm,-,N/A,,Clear,0,2013-07-22 07:35:00
2:55 AM,61.7,59.9,94,29.88,3.0,Calm,Calm,-,N/A,,Clear,0,2013-07-22 07:55:00
3:15 AM,61.7,59.9,94,29.87,0.2,Calm,Calm,-,N/A,Fog,Fog,0,2013-07-22 08:15:00
3:35 AM,61.7,59.9,94,29.87,0.5,Calm,Calm,-,N/A,Fog,Fog,0,2013-07-22 08:35:00
3:55 AM,61.5,59.7,94,29.87,0.2,Calm,Calm,-,N/A,Fog,Fog,0,2013-07-22 08:55:00
4:15 AM,59.4,57.7,94,29.87,0.2,Calm,Calm,-,N/A,Fog,Fog,0,2013-07-22 09:15:00
4:35 AM,61.7,59.9,94,29.87,0.2,Calm,Calm,-,N/A,Fog,Fog,0,2013-07-22 09:35:00
4:55 AM,61.7,59.9,94,29.87,0.2,ENE,3.5,-,N/A,Fog,Fog,70,2013-07-22 09:55:00
5:15 AM,61.7,59.9,94,29.88,0.2,Calm,Calm,-,N/A,Fog,Fog,0,2013-07-22 10:15:00
5:35 AM,61.3,59.7,94,29.88,0.2,Calm,Calm,-,N/A,Fog,Fog,0,2013-07-22 10:35:00
5:55 AM,61.7,59.9,94,29.87,0.2,Calm,Calm,-,N/A,Fog,Fog,0,2013-07-22 10:55:00
6:15 AM,60.3,58.6,94,29.87,1.0,Calm,Calm,-,N/A,,Overcast,0,2013-07-22 11:15:00
6:35 AM,61.7,59.9,94,29.87,0.2,Calm,Calm,-,N/A,Fog,Fog,0,2013-07-22 11:35:00
6:55 AM,64.0,62.6,95,29.87,0.2,Calm,Calm,-,N/A,Fog,Fog,0,2013-07-22 11:55:00
7:15 AM,64.0,62.6,95,29.87,0.2,Calm,Calm,-,N/A,Fog,Fog,0,2013-07-22 12:15:00
7:35 AM,64.9,63.3,94,29.87,1.0,Calm,Calm,-,N/A,,Overcast,0,2013-07-22 12:35:00
7:55 AM,66.2,64.6,94,29.88,3.0,Calm,Calm,-,N/A,,Scattered Clouds,0,2013-07-22 12:55:00
8:35 AM,69.3,67.3,93,29.89,10.0,South,4.6,-,N/A,,Clear,180,2013-07-22 13:35:00
8:55 AM,71.8,69.1,91,29.88,10.0,Calm,Calm,-,N/A,,Clear,0,2013-07-22 13:55:00
9:55 AM,79.3,72.1,79,29.87,10.0,SW,3.5,-,N/A,,Scattered Clouds,230,2013-07-22 14:55:00
10:15 AM,79.2,71.6,78,29.87,7.0,SSW,4.6,-,N/A,,Scattered Clouds,210,2013-07-22 15:15:00
10:35 AM,79.3,70.2,73,29.87,10.0,South,6.9,-,N/A,,Mostly Cloudy,190,2013-07-22 15:35:00
10:55 AM,79.3,70.0,73,29.87,10.0,South,8.1,-,N/A,,Scattered Clouds,190,2013-07-22 15:55:00
11:15 AM,81.1,70.2,69,29.87,10.0,South,9.2,-,N/A,,Scattered Clouds,180,2013-07-22 16:15:00
11:35 AM,81.9,70.5,68,29.87,10.0,South,9.2,-,N/A,,Scattered Clouds,180,2013-07-22 16:35:00
11:55 AM,81.9,69.6,66,29.87,10.0,SSW,8.1,-,N/A,,Scattered Clouds,200,2013-07-22 16:55:00
12:15 PM,81.9,68.7,64,29.87,10.0,SSW,10.4,-,N/A,,Scattered Clouds,210,2013-07-22 17:15:00
12:35 PM,81.9,68.5,64,29.86,10.0,SSW,4.6,-,N/A,,Scattered Clouds,210,2013-07-22 17:35:00
12:55 PM,82.0,68.2,63,29.85,10.0,WSW,4.6,-,N/A,,Scattered Clouds,240,2013-07-22 17:55:00
1:15 PM,82.6,69.1,64,29.85,10.0,South,5.8,-,N/A,,Clear,180,2013-07-22 18:15:00
1:35 PM,82.4,68.5,63,29.84,10.0,SW,6.9,-,N/A,,Scattered Clouds,230,2013-07-22 18:35:00
1:55 PM,84.4,69.6,61,29.83,10.0,SW,5.8,-,N/A,,Scattered Clouds,230,2013-07-22 18:55:00
2:15 PM,84.4,69.8,61,29.82,10.0,South,6.9,-,N/A,,Scattered Clouds,170,2013-07-22 19:15:00
2:35 PM,84.7,69.6,60,29.82,10.0,South,8.1,-,N/A,,Clear,190,2013-07-22 19:35:00
2:55 PM,84.4,69.6,61,29.81,10.0,SSW,8.1,-,N/A,,Clear,210,2013-07-22 19:55:00
3:15 PM,84.4,70.0,62,29.81,10.0,South,8.1,-,N/A,,Clear,170,2013-07-22 20:15:00
3:35 PM,85.5,70.9,62,29.81,10.0,SSW,8.1,-,N/A,,Scattered Clouds,210,2013-07-22 20:35:00
3:55 PM,85.6,70.9,61,29.81,10.0,South,8.1,-,N/A,,Scattered Clouds,180,2013-07-22 20:55:00
4:15 PM,85.6,72.0,63,29.80,10.0,South,12.7,-,N/A,,Scattered Clouds,190,2013-07-22 21:15:00
4:35 PM,84.4,71.6,65,29.80,10.0,South,9.2,-,N/A,,Scattered Clouds,180,2013-07-22 21:35:00
4:55 PM,85.3,71.6,63,29.79,10.0,South,10.4,16.1,N/A,,Scattered Clouds,180,2013-07-22 21:55:00
5:15 PM,84.6,71.6,65,29.79,10.0,South,9.2,-,N/A,,Scattered Clouds,180,2013-07-22 22:15:00
5:35 PM,84.4,72.3,67,29.79,10.0,South,10.4,16.1,N/A,,Scattered Clouds,190,2013-07-22 22:35:00
5:55 PM,84.4,72.3,67,29.78,10.0,South,12.7,-,N/A,,Scattered Clouds,190,2013-07-22 22:55:00
6:15 PM,84.2,72.3,67,29.78,10.0,SSW,11.5,17.3,N/A,,Scattered Clouds,200,2013-07-22 23:15:00
6:35 PM,82.4,71.6,70,29.79,10.0,SSW,8.1,-,N/A,,Clear,200,2013-07-22 23:35:00
6:55 PM,81.9,72.1,72,29.78,10.0,South,9.2,-,N/A,,Clear,190,2013-07-22 23:55:00
7:15 PM,81.9,73.4,75,29.78,10.0,South,6.9,-,N/A,,Clear,180,2013-07-23 00:15:00
7:35 PM,81.9,74.3,78,29.78,10.0,South,5.8,-,N/A,Thunderstorm,Clear,190,2013-07-23 00:35:00
7:55 PM,79.3,73.0,81,29.78,10.0,South,5.8,-,N/A,,Clear,170,2013-07-23 00:55:00
8:15 PM,79.3,73.4,82,29.77,10.0,South,5.8,-,N/A,,Clear,170,2013-07-23 01:15:00
8:35 PM,79.3,74.5,85,29.77,10.0,SSE,3.5,-,N/A,,Clear,150,2013-07-23 01:35:00
8:55 PM,77.9,73.8,87,29.79,10.0,South,3.5,-,N/A,,Scattered Clouds,170,2013-07-23 01:55:00
9:15 PM,77.4,73.6,88,29.79,10.0,SSE,5.8,-,N/A,,Mostly Cloudy,160,2013-07-23 02:15:00
9:35 PM,77.0,73.4,89,29.78,10.0,SSE,6.9,-,N/A,,Scattered Clouds,160,2013-07-23 02:35:00
9:55 PM,78.8,74.1,85,29.80,10.0,WSW,24.2,29.9,N/A,Thunderstorm,Mostly Cloudy,240,2013-07-23 02:55:00
10:15 PM,73.9,67.6,81,29.81,7.0,West,6.9,24.2,0.05,Rain-Thunderstorm,Light Thunderstorms and Rain,280,2013-07-23 03:15:00
10:35 PM,69.3,64.0,83,29.87,10.0,WNW,8.1,-,0.06,Rain-Thunderstorm,Rain,290,2013-07-23 03:35:00
10:55 PM,66.6,62.6,87,29.87,7.0,NE,11.5,20.7,0.09,Rain,Light Rain,40,2013-07-23 03:55:00
11:15 PM,65.3,62.8,92,29.83,10.0,East,12.7,-,0.01,Rain-Thunderstorm,Light Thunderstorms and Rain,90,2013-07-23 04:15:00
11:35 PM,65.3,62.8,92,29.83,10.0,East,9.2,-,0.02,,Mostly Cloudy,100,2013-07-23 04:35:00
11:55 PM,65.3,62.6,91,29.82,10.0,SE,5.8,-,0.02,,Scattered Clouds,140,2013-07-23 04:55:00